createdAt,value
2023-03-05T00:00:02.687Z,4.80
2023-03-05T00:01:02.632Z,7.80
2023-03-05T00:02:03.118Z,6.00
2023-03-05T00:03:02.616Z,4.60
2023-03-05T00:04:02.639Z,6.00
2023-03-05T00:05:02.620Z,5.60
2023-03-05T00:06:02.620Z,5.80
2023-03-05T00:07:02.590Z,6.80
2023-03-05T00:08:02.596Z,8.30
2023-03-05T00:09:02.588Z,4.70
2023-03-05T00:10:02.574Z,7.10
2023-03-05T00:11:02.601Z,6.20
2023-03-05T00:12:02.957Z,5.40
2023-03-05T00:13:02.564Z,5.30
2023-03-05T00:14:02.538Z,5.20
2023-03-05T00:15:02.574Z,5.80
2023-03-05T00:16:02.555Z,6.40
2023-03-05T00:17:02.531Z,9.30
2023-03-05T00:18:02.555Z,6.70
2023-03-05T00:19:02.509Z,7.40
2023-03-05T00:20:02.695Z,7.40
2023-03-05T00:21:02.483Z,10.50
2023-03-05T00:22:02.492Z,6.60
2023-03-05T00:23:02.473Z,5.70
2023-03-05T00:24:02.512Z,5.70
2023-03-05T00:25:02.440Z,6.50
2023-03-05T00:26:02.461Z,3.90
2023-03-05T00:27:02.452Z,6.00
2023-03-05T00:28:02.465Z,5.50
2023-03-05T00:29:02.424Z,5.10
2023-03-05T00:30:02.485Z,5.40
2023-03-05T00:31:02.439Z,8.50
2023-03-05T00:32:02.477Z,6.40
2023-03-05T00:33:02.409Z,5.60
2023-03-05T00:34:02.418Z,5.40
2023-03-05T00:35:02.390Z,7.50
2023-03-05T00:36:02.548Z,6.70
2023-03-05T00:37:02.375Z,5.80
2023-03-05T00:38:02.351Z,6.20
2023-03-05T00:39:02.368Z,6.30
2023-03-05T00:40:02.420Z,7.10
2023-03-05T00:41:02.376Z,4.70
2023-03-05T00:42:02.373Z,7.00
2023-03-05T00:43:02.334Z,6.00
2023-03-05T00:44:02.321Z,7.50
2023-03-05T00:45:02.349Z,6.00
2023-03-05T00:46:02.504Z,6.10
2023-03-05T00:47:02.301Z,8.20
2023-03-05T00:48:02.316Z,4.10
2023-03-05T00:49:03.090Z,4.90
2023-03-05T00:50:02.285Z,4.60
2023-03-05T00:51:02.272Z,8.80
2023-03-05T00:52:02.277Z,5.20
2023-03-05T00:53:02.251Z,7.50
2023-03-05T00:54:02.276Z,6.80
2023-03-05T00:55:02.247Z,7.70
2023-03-05T00:56:02.266Z,8.90
2023-03-05T00:57:02.237Z,5.10
2023-03-05T00:58:02.231Z,7.60
2023-03-05T00:59:02.227Z,7.20
2023-03-05T01:00:02.279Z,5.80
2023-03-05T01:01:02.216Z,8.90
2023-03-05T01:02:02.238Z,3.80
2023-03-05T01:03:02.214Z,6.20
2023-03-05T01:04:02.173Z,7.50
2023-03-05T01:05:02.198Z,7.00
2023-03-05T01:06:02.202Z,6.20
2023-03-05T01:07:02.177Z,5.40
2023-03-05T01:08:02.159Z,8.30
2023-03-05T01:09:02.156Z,6.50
2023-03-05T01:10:02.181Z,6.80
2023-03-05T01:11:02.104Z,5.90
2023-03-05T01:12:02.142Z,6.40
2023-03-05T01:13:02.108Z,4.60
2023-03-05T01:14:02.117Z,5.30
2023-03-05T01:15:02.117Z,5.70
2023-03-05T01:16:02.115Z,6.90
2023-03-05T01:17:02.066Z,8.20
2023-03-05T01:18:02.497Z,6.60
2023-03-05T01:19:02.059Z,5.50
2023-03-05T01:20:16.082Z,10.00
2023-03-05T01:21:02.053Z,5.30
2023-03-05T01:22:02.050Z,5.10
2023-03-05T01:23:02.045Z,4.20
2023-03-05T01:24:02.071Z,6.40
2023-03-05T01:25:01.991Z,5.80
2023-03-05T01:26:02.012Z,9.10
2023-03-05T01:27:02.022Z,9.60
2023-03-05T01:28:02.004Z,6.10
2023-03-05T01:29:01.981Z,3.60
2023-03-05T01:30:02.091Z,8.90
2023-03-05T01:31:02.002Z,5.20
2023-03-05T01:32:02.066Z,6.00
2023-03-05T01:33:02.004Z,5.90
2023-03-05T01:34:02.002Z,5.70
2023-03-05T01:35:01.980Z,5.10
2023-03-05T01:36:02.021Z,3.70
2023-03-05T01:37:01.938Z,8.50
2023-03-05T01:38:01.919Z,7.40
2023-03-05T01:39:01.918Z,6.40
2023-03-05T01:40:01.934Z,3.80
2023-03-05T01:41:01.922Z,8.30
2023-03-05T01:42:01.992Z,6.30
2023-03-05T01:43:01.925Z,5.30
2023-03-05T01:44:01.904Z,5.00
2023-03-05T01:45:01.905Z,7.70
2023-03-05T01:46:01.897Z,6.10
2023-03-05T01:47:01.881Z,8.10
2023-03-05T01:48:01.928Z,5.20
2023-03-05T01:49:01.891Z,5.00
2023-03-05T01:50:01.859Z,6.60
2023-03-05T01:51:01.862Z,8.30
2023-03-05T01:52:01.859Z,5.80
2023-03-05T01:53:01.838Z,8.30
2023-03-05T01:54:01.903Z,5.70
2023-03-05T01:55:01.881Z,5.00
2023-03-05T01:56:01.803Z,5.20
2023-03-05T01:57:01.823Z,6.50
2023-03-05T01:58:01.839Z,5.70
2023-03-05T01:59:01.791Z,5.80
2023-03-05T02:00:01.877Z,6.90
2023-03-05T02:01:01.825Z,5.10
2023-03-05T02:02:01.788Z,5.70
2023-03-05T02:03:01.802Z,7.50
2023-03-05T02:04:01.837Z,6.30
2023-03-05T02:05:01.756Z,6.60
2023-03-05T02:06:01.795Z,5.70
2023-03-05T02:07:01.745Z,5.40
2023-03-05T02:08:01.751Z,5.30
2023-03-05T02:09:01.860Z,8.20
2023-03-05T02:10:01.723Z,8.50
2023-03-05T02:11:01.729Z,6.30
2023-03-05T02:12:01.782Z,5.30
2023-03-05T02:13:01.700Z,6.30
2023-03-05T02:14:01.685Z,6.30
2023-03-05T02:15:01.704Z,5.00
2023-03-05T02:16:01.751Z,7.40
2023-03-05T02:17:01.661Z,5.50
2023-03-05T02:18:01.739Z,4.00
2023-03-05T02:19:01.647Z,7.70
2023-03-05T02:20:01.660Z,4.90
2023-03-05T02:21:01.663Z,4.70
2023-03-05T02:22:01.646Z,4.90
2023-03-05T02:23:01.621Z,6.40
2023-03-05T02:24:02.094Z,6.20
2023-03-05T02:25:01.621Z,7.70
2023-03-05T02:26:01.638Z,5.90
2023-03-05T02:27:01.621Z,4.70
2023-03-05T02:28:01.655Z,4.50
2023-03-05T02:29:01.581Z,6.30
2023-03-05T02:30:01.634Z,5.80
2023-03-05T02:31:01.571Z,6.80
2023-03-05T02:32:01.747Z,8.90
2023-03-05T02:33:01.597Z,4.30
2023-03-05T02:34:01.577Z,8.20
2023-03-05T02:35:01.544Z,3.50
2023-03-05T02:36:01.622Z,4.10
2023-03-05T02:37:01.546Z,8.00
2023-03-05T02:38:01.546Z,6.80
2023-03-05T02:39:01.525Z,4.80
2023-03-05T02:40:01.520Z,4.00
2023-03-05T02:41:01.548Z,5.00
2023-03-05T02:42:01.580Z,8.40
2023-03-05T02:43:01.506Z,5.10
2023-03-05T02:44:01.505Z,4.90
2023-03-05T02:45:01.503Z,8.70
2023-03-05T02:46:01.538Z,6.50
2023-03-05T02:47:01.488Z,4.60
2023-03-05T02:48:01.544Z,6.50
2023-03-05T02:49:01.482Z,8.50
2023-03-05T02:50:01.489Z,7.90
2023-03-05T02:51:01.485Z,6.40
2023-03-05T02:52:01.459Z,5.20
2023-03-05T02:53:01.449Z,5.80
2023-03-05T02:54:01.486Z,3.60
2023-03-05T02:55:01.425Z,6.10
2023-03-05T02:56:01.424Z,7.10
2023-03-05T02:57:01.432Z,4.50
2023-03-05T02:58:01.403Z,6.60
2023-03-05T02:59:01.441Z,4.80
2023-03-05T03:00:01.651Z,4.70
2023-03-05T03:01:01.409Z,5.40
2023-03-05T03:02:22.365Z,4.90
2023-03-05T03:03:01.428Z,6.10
2023-03-05T03:04:01.386Z,5.60
2023-03-05T03:05:01.371Z,3.50
2023-03-05T03:06:01.423Z,7.50
2023-03-05T03:07:01.322Z,5.80
2023-03-05T03:08:01.342Z,4.60
2023-03-05T03:09:01.322Z,3.20
2023-03-05T03:10:01.306Z,6.60
2023-03-05T03:11:01.327Z,3.80
2023-03-05T03:12:01.383Z,4.70
2023-03-05T03:13:01.311Z,4.70
2023-03-05T03:14:01.292Z,5.50
2023-03-05T03:15:29.072Z,7.10
2023-03-05T03:16:01.271Z,6.50
2023-03-05T03:17:01.356Z,5.60
2023-03-05T03:18:01.302Z,3.00
2023-03-05T03:19:01.280Z,6.00
2023-03-05T03:20:01.291Z,6.00
2023-03-05T03:21:01.292Z,4.30
2023-03-05T03:22:01.270Z,4.00
2023-03-05T03:23:01.255Z,4.80
2023-03-05T03:24:01.503Z,4.80
2023-03-05T03:25:01.212Z,7.90
2023-03-05T03:26:01.223Z,4.40
2023-03-05T03:27:01.251Z,3.90
2023-03-05T03:28:01.193Z,6.30
2023-03-05T03:29:01.210Z,5.60
2023-03-05T03:30:01.219Z,4.70
2023-03-05T03:31:01.259Z,7.10
2023-03-05T03:32:01.197Z,7.30
2023-03-05T03:33:01.167Z,5.50
2023-03-05T03:34:01.175Z,4.60
2023-03-05T03:35:01.136Z,9.60
2023-03-05T03:36:01.366Z,5.40
2023-03-05T03:37:01.149Z,5.10
2023-03-05T03:38:01.150Z,5.60
2023-03-05T03:39:01.135Z,4.00
2023-03-05T03:40:01.152Z,7.50
2023-03-05T03:41:01.119Z,5.10
2023-03-05T03:42:01.129Z,5.60
2023-03-05T03:43:01.119Z,3.70
2023-03-05T03:44:01.092Z,7.10
2023-03-05T03:45:01.102Z,6.80
2023-03-05T03:46:01.143Z,7.70
2023-03-05T03:47:01.068Z,5.30
2023-03-05T03:48:01.132Z,5.60
2023-03-05T03:49:01.031Z,3.70
2023-03-05T03:50:01.052Z,5.50
2023-03-05T03:51:01.061Z,4.30
2023-03-05T03:52:01.031Z,5.80
2023-03-05T03:53:01.024Z,5.40
2023-03-05T03:54:01.090Z,5.00
2023-03-05T03:55:01.012Z,6.00
2023-03-05T03:56:01.004Z,5.80
2023-03-05T03:57:01.011Z,6.00
2023-03-05T03:58:01.011Z,4.40
2023-03-05T03:59:00.991Z,4.70
2023-03-05T04:00:01.032Z,5.00
2023-03-05T04:01:01.034Z,4.70
2023-03-05T04:02:00.966Z,6.00
2023-03-05T04:03:00.989Z,5.10
2023-03-05T04:04:01.031Z,6.20
2023-03-05T04:05:00.959Z,7.10
2023-03-05T04:06:01.000Z,3.80
2023-03-05T04:07:00.909Z,7.00
2023-03-05T04:08:00.932Z,7.20
2023-03-05T04:09:00.909Z,5.20
2023-03-05T04:10:00.935Z,4.10
2023-03-05T04:11:00.940Z,5.40
2023-03-05T04:12:00.953Z,3.90
2023-03-05T04:13:00.913Z,5.30
2023-03-05T04:14:00.914Z,5.50
2023-03-05T04:15:00.879Z,5.10
2023-03-05T04:16:00.957Z,7.40
2023-03-05T04:17:00.875Z,6.50
2023-03-05T04:18:00.941Z,4.10
2023-03-05T04:19:00.856Z,4.90
2023-03-05T04:20:00.862Z,4.10
2023-03-05T04:21:00.862Z,4.90
2023-03-05T04:22:00.825Z,7.10
2023-03-05T04:23:00.833Z,4.60
2023-03-05T04:24:00.927Z,7.00
2023-03-05T04:25:00.798Z,5.10
2023-03-05T04:26:00.830Z,5.90
2023-03-05T04:27:00.820Z,5.10
2023-03-05T04:28:00.797Z,3.20
2023-03-05T04:29:00.775Z,3.60
2023-03-05T04:30:01.026Z,4.90
2023-03-05T04:31:00.792Z,4.60
2023-03-05T04:32:00.821Z,4.90
2023-03-05T04:33:00.747Z,4.50
2023-03-05T04:34:00.773Z,4.40
2023-03-05T04:35:00.748Z,2.80
2023-03-05T04:36:00.807Z,4.40
2023-03-05T04:37:00.718Z,8.50
2023-03-05T04:38:00.703Z,5.60
2023-03-05T04:39:00.723Z,3.10
2023-03-05T04:40:00.711Z,5.20
2023-03-05T04:41:00.677Z,4.70
2023-03-05T04:42:00.740Z,4.60
2023-03-05T04:43:00.669Z,3.80
2023-03-05T04:44:00.672Z,5.10
2023-03-05T04:45:00.676Z,5.10
2023-03-05T04:46:00.683Z,4.00
2023-03-05T04:47:00.668Z,5.40
2023-03-05T04:48:00.693Z,6.90
2023-03-05T04:49:00.624Z,7.30
2023-03-05T04:50:00.635Z,7.70
2023-03-05T04:51:00.644Z,6.80
2023-03-05T04:52:00.622Z,5.10
2023-03-05T04:53:00.601Z,6.80
2023-03-05T04:54:00.685Z,2.60
2023-03-05T04:55:00.607Z,4.30
2023-03-05T04:56:00.604Z,6.60
2023-03-05T04:57:00.597Z,3.20
2023-03-05T04:58:00.585Z,3.80
2023-03-05T04:59:00.604Z,5.40
2023-03-05T05:00:00.659Z,3.20
2023-03-05T05:01:00.539Z,5.60
2023-03-05T05:02:00.615Z,5.20
2023-03-05T05:03:00.563Z,4.40
2023-03-05T05:04:00.530Z,5.20
2023-03-05T05:05:00.548Z,6.60
2023-03-05T05:06:00.574Z,4.80
2023-03-05T05:07:00.525Z,4.70
2023-03-05T05:08:00.527Z,5.60
2023-03-05T05:09:00.491Z,3.60
2023-03-05T05:10:00.477Z,4.80
2023-03-05T05:11:00.511Z,4.40
2023-03-05T05:12:00.561Z,5.80
2023-03-05T05:13:00.485Z,6.20
2023-03-05T05:14:00.474Z,3.10
2023-03-05T05:15:00.449Z,4.80
2023-03-05T05:16:00.520Z,7.10
2023-03-05T05:17:00.469Z,7.00
2023-03-05T05:18:00.492Z,5.90
2023-03-05T05:19:00.520Z,4.80
2023-03-05T05:20:00.460Z,4.10
2023-03-05T05:21:00.404Z,4.10
2023-03-05T05:22:00.408Z,5.20
2023-03-05T05:23:00.435Z,3.40
2023-03-05T05:24:00.423Z,4.30
2023-03-05T05:25:00.417Z,4.00
2023-03-05T05:26:00.412Z,4.60
2023-03-05T05:27:00.372Z,4.90
2023-03-05T05:28:00.371Z,5.30
2023-03-05T05:29:00.375Z,4.60
2023-03-05T05:30:00.787Z,5.50
2023-03-05T05:31:00.356Z,5.00
2023-03-05T05:32:00.395Z,5.10
2023-03-05T05:33:00.330Z,6.00
2023-03-05T05:34:00.315Z,2.20
2023-03-05T05:35:00.319Z,4.20
2023-03-05T05:36:00.419Z,3.50
2023-03-05T05:37:00.318Z,4.10
2023-03-05T05:38:00.299Z,3.20
2023-03-05T05:39:00.323Z,2.90
2023-03-05T05:40:00.272Z,7.70
2023-03-05T05:41:00.298Z,4.20
2023-03-05T05:42:00.320Z,3.50
2023-03-05T05:43:00.300Z,5.30
2023-03-05T05:44:43.702Z,6.00
2023-03-05T05:45:22.292Z,3.70
2023-03-05T05:46:31.826Z,2.70
2023-03-05T05:47:01.351Z,2.80
2023-03-05T05:48:00.232Z,5.20
2023-03-05T05:49:00.229Z,6.00
2023-03-05T05:50:00.220Z,5.60
2023-03-05T05:51:00.219Z,7.00
2023-03-05T05:52:00.233Z,7.70
2023-03-05T05:53:00.282Z,5.90
2023-03-05T05:54:00.194Z,7.40
2023-03-05T05:55:00.199Z,3.50
2023-03-05T05:56:12.309Z,4.60
2023-03-05T05:57:00.193Z,5.30
2023-03-05T05:58:00.181Z,4.10
2023-03-05T05:59:22.533Z,3.80
2023-03-05T06:00:01.174Z,5.30
2023-03-05T06:01:00.149Z,5.20
2023-03-05T06:02:00.226Z,6.30
2023-03-05T06:03:00.206Z,3.40
2023-03-05T06:04:00.117Z,5.50
2023-03-05T06:05:06.253Z,4.30
2023-03-05T06:06:00.140Z,3.70
2023-03-05T06:07:00.152Z,7.30
2023-03-05T06:08:00.110Z,4.90
2023-03-05T06:09:00.121Z,5.30
2023-03-05T06:10:00.078Z,4.20
2023-03-05T06:11:00.128Z,5.90
2023-03-05T06:12:00.074Z,4.20
2023-03-05T06:13:00.088Z,6.40
2023-03-05T06:14:00.092Z,4.20
2023-03-05T06:15:00.079Z,5.30
2023-03-05T06:16:00.040Z,4.00
2023-03-05T06:17:00.112Z,6.50
2023-03-05T06:18:00.042Z,4.80
2023-03-05T06:19:00.065Z,5.70
2023-03-05T06:20:00.045Z,6.20
2023-03-05T06:21:00.014Z,4.50
2023-03-05T06:22:00.013Z,6.10
2023-03-05T06:23:00.022Z,5.80
2023-03-05T06:23:59.987Z,3.50
2023-03-05T06:24:59.973Z,8.30
2023-03-05T06:25:59.967Z,4.10
2023-03-05T06:27:16.296Z,4.20
2023-03-05T06:27:59.987Z,6.70
2023-03-05T06:28:59.954Z,4.30
2023-03-05T06:29:59.971Z,7.50
2023-03-05T06:31:00.033Z,6.50
2023-03-05T06:31:59.946Z,6.80
2023-03-05T06:32:59.931Z,6.40
2023-03-05T06:33:59.924Z,5.20
2023-03-05T06:35:00.196Z,5.80
2023-03-05T06:36:14.257Z,7.40
2023-03-05T06:36:59.910Z,6.20
2023-03-05T06:37:59.889Z,4.80
2023-03-05T06:38:59.916Z,7.20
2023-03-05T06:39:59.917Z,4.20
2023-03-05T06:40:59.915Z,6.20
2023-03-05T06:41:59.867Z,5.50
2023-03-05T06:42:59.871Z,6.80
2023-03-05T06:43:59.865Z,4.90
2023-03-05T06:44:59.852Z,6.30
2023-03-05T06:45:59.906Z,8.70
2023-03-05T06:46:59.868Z,3.70
2023-03-05T06:47:59.821Z,5.40
2023-03-05T06:48:59.833Z,7.80
2023-03-05T06:49:59.817Z,5.50
2023-03-05T06:50:59.814Z,5.30
2023-03-05T06:51:59.788Z,5.30
2023-03-05T06:52:59.839Z,6.50
2023-03-05T06:53:59.793Z,6.80
2023-03-05T06:54:59.767Z,4.60
2023-03-05T06:55:59.850Z,5.10
2023-03-05T06:56:59.776Z,5.40
2023-03-05T06:57:59.770Z,4.80
2023-03-05T06:58:59.817Z,7.30
2023-03-05T06:59:59.751Z,6.90
2023-03-05T07:00:59.766Z,4.10
2023-03-05T07:01:59.750Z,6.90
2023-03-05T07:02:59.745Z,7.50
2023-03-05T07:03:59.729Z,6.90
2023-03-05T07:04:59.775Z,5.30
2023-03-05T07:05:59.719Z,8.80
2023-03-05T07:07:09.745Z,8.40
2023-03-05T07:07:59.686Z,7.30
2023-03-05T07:08:59.698Z,9.50
2023-03-05T07:09:59.691Z,6.50
2023-03-05T07:10:59.727Z,8.10
2023-03-05T07:11:59.680Z,8.20
2023-03-05T07:12:59.649Z,8.60
2023-03-05T07:13:59.647Z,8.80
2023-03-05T07:14:59.657Z,5.60
2023-03-05T07:15:59.658Z,6.90
2023-03-05T07:16:59.728Z,7.70
2023-03-05T07:17:59.629Z,6.90
2023-03-05T07:18:59.612Z,9.20
2023-03-05T07:19:59.607Z,7.00
2023-03-05T07:20:59.567Z,9.30
2023-03-05T07:21:59.587Z,6.40
2023-03-05T07:22:59.638Z,8.00
2023-03-05T07:23:59.570Z,7.00
2023-03-05T07:24:59.549Z,7.30
2023-03-05T07:25:59.599Z,7.60
2023-03-05T07:26:59.534Z,8.20
2023-03-05T07:27:59.548Z,9.90
2023-03-05T07:28:59.611Z,6.80
2023-03-05T07:29:59.552Z,7.00
2023-03-05T07:30:59.634Z,7.10
2023-03-05T07:31:59.548Z,6.80
2023-03-05T07:32:59.580Z,6.90
2023-03-05T07:33:59.499Z,7.70
2023-03-05T07:35:00.006Z,7.90
2023-03-05T07:35:59.552Z,8.10
2023-03-05T07:36:59.519Z,10.90
2023-03-05T07:37:59.488Z,8.30
2023-03-05T07:38:59.557Z,7.10
2023-03-05T07:39:59.471Z,9.70
2023-03-05T07:40:59.528Z,5.70
2023-03-05T07:41:59.456Z,7.70
2023-03-05T07:42:59.453Z,7.90
2023-03-05T07:43:59.451Z,9.20
2023-03-05T07:45:05.857Z,6.00
2023-03-05T07:45:59.463Z,10.80
2023-03-05T07:46:59.474Z,7.80
2023-03-05T07:47:59.412Z,5.80
2023-03-05T07:48:59.409Z,7.70
2023-03-05T07:49:59.392Z,7.80
2023-03-05T07:50:59.531Z,7.20
2023-03-05T07:51:59.389Z,6.10
2023-03-05T07:52:59.445Z,9.20
2023-03-05T07:53:59.426Z,5.70
2023-03-05T07:54:59.364Z,6.90
2023-03-05T07:55:59.498Z,7.50
2023-03-05T07:56:59.343Z,9.40
2023-03-05T07:57:59.351Z,8.40
2023-03-05T07:58:59.364Z,5.80
2023-03-05T07:59:59.319Z,5.40
2023-03-05T08:00:59.312Z,8.20
2023-03-05T08:01:59.318Z,7.70
2023-03-05T08:02:59.290Z,8.20
2023-03-05T08:04:09.547Z,9.00
2023-03-05T08:04:59.359Z,6.70
2023-03-05T08:05:59.311Z,7.00
2023-03-05T08:06:59.257Z,9.40
2023-03-05T08:07:59.265Z,8.50
2023-03-05T08:08:59.257Z,7.90
2023-03-05T08:09:59.275Z,5.60
2023-03-05T08:10:59.256Z,7.50
2023-03-05T08:11:59.267Z,6.40
2023-03-05T08:12:59.241Z,7.90
2023-03-05T08:13:59.231Z,4.70
2023-03-05T08:14:59.229Z,7.40
2023-03-05T08:15:59.325Z,5.80
2023-03-05T08:16:59.266Z,6.00
2023-03-05T08:17:59.207Z,4.80
2023-03-05T08:18:59.208Z,6.40
2023-03-05T08:19:59.182Z,6.60
2023-03-05T08:20:59.156Z,5.20
2023-03-05T08:21:59.171Z,5.20
2023-03-05T08:22:59.206Z,6.50
2023-03-05T08:23:59.156Z,5.00
2023-03-05T08:24:59.160Z,5.60
2023-03-05T08:25:59.217Z,3.20
2023-03-05T08:26:59.141Z,5.60
2023-03-05T08:27:59.150Z,6.00
2023-03-05T08:28:59.158Z,5.90
2023-03-05T08:29:59.144Z,6.20
2023-03-05T08:30:59.119Z,7.00
2023-03-05T08:31:59.125Z,4.70
2023-03-05T08:32:59.094Z,6.00
2023-03-05T08:33:59.092Z,4.50
2023-03-05T08:34:59.110Z,6.50
2023-03-05T08:35:59.135Z,4.60
2023-03-05T08:36:59.078Z,4.40
2023-03-05T08:37:59.183Z,6.10
2023-03-05T08:38:59.082Z,6.00
2023-03-05T08:39:59.048Z,7.10
2023-03-05T08:40:59.616Z,7.50
2023-03-05T08:41:59.046Z,6.80
2023-03-05T08:42:59.134Z,7.40
2023-03-05T08:43:59.040Z,6.30
2023-03-05T08:44:59.071Z,6.00
2023-03-05T08:45:59.018Z,8.10
2023-03-05T08:46:59.064Z,6.90
2023-03-05T08:47:59.011Z,5.60
2023-03-05T08:48:58.988Z,8.30
2023-03-05T08:49:58.974Z,7.80
2023-03-05T08:50:58.965Z,10.60
2023-03-05T08:51:58.958Z,5.70
2023-03-05T08:52:58.985Z,7.00
2023-03-05T08:53:58.948Z,8.80
2023-03-05T08:54:58.918Z,6.90
2023-03-05T08:55:58.936Z,8.50
2023-03-05T08:56:58.929Z,6.50
2023-03-05T08:57:58.900Z,6.10
2023-03-05T08:58:58.948Z,8.60
2023-03-05T08:59:58.895Z,6.90
2023-03-05T09:01:02.517Z,8.00
2023-03-05T09:02:05.045Z,6.50
2023-03-05T09:02:58.960Z,7.60
2023-03-05T09:03:58.895Z,6.30
2023-03-05T09:04:58.941Z,6.90
2023-03-05T09:05:58.862Z,9.20
2023-03-05T09:06:58.866Z,8.90
2023-03-05T09:07:58.845Z,10.90
2023-03-05T09:08:58.841Z,10.00
2023-03-05T09:09:58.830Z,7.90
2023-03-05T09:10:58.876Z,8.50
2023-03-05T09:11:58.807Z,9.30
2023-03-05T09:12:58.814Z,9.80
2023-03-05T09:13:58.814Z,9.00
2023-03-05T09:14:58.816Z,8.00
2023-03-05T09:15:58.836Z,7.30
2023-03-05T09:16:58.837Z,8.50
2023-03-05T09:17:58.782Z,8.80
2023-03-05T09:18:58.799Z,9.30
2023-03-05T09:19:58.760Z,9.10
2023-03-05T09:20:58.774Z,10.90
2023-03-05T09:21:58.754Z,9.50
2023-03-05T09:22:58.757Z,8.60
2023-03-05T09:23:58.740Z,8.30
2023-03-05T09:24:58.742Z,8.80
2023-03-05T09:25:58.725Z,10.40
2023-03-05T09:26:58.739Z,10.60
2023-03-05T09:27:58.710Z,12.10
2023-03-05T09:28:58.729Z,8.80
2023-03-05T09:29:58.704Z,10.90
2023-03-05T09:30:58.713Z,11.60
2023-03-05T09:31:58.735Z,8.10
2023-03-05T09:32:58.688Z,11.00
2023-03-05T09:33:58.694Z,11.30
2023-03-05T09:34:58.709Z,11.50
2023-03-05T09:35:58.723Z,9.30
2023-03-05T09:36:58.644Z,11.10
2023-03-05T09:37:58.629Z,8.80
2023-03-05T09:38:58.647Z,11.40
2023-03-05T09:39:58.626Z,10.30
2023-03-05T09:40:58.672Z,10.90
2023-03-05T09:41:58.632Z,10.00
2023-03-05T09:42:58.597Z,10.10
2023-03-05T09:43:58.611Z,10.90
2023-03-05T09:44:58.607Z,10.60
2023-03-05T09:45:58.646Z,10.60
2023-03-05T09:46:59.047Z,10.00
2023-03-05T09:47:58.564Z,11.10
2023-03-05T09:48:58.576Z,10.60
2023-03-05T09:49:58.560Z,9.80
2023-03-05T09:50:58.538Z,9.20
2023-03-05T09:51:58.538Z,11.00
2023-03-05T09:52:58.651Z,12.10
2023-03-05T09:53:59.489Z,10.30
2023-03-05T09:54:58.543Z,10.20
2023-03-05T09:55:58.526Z,11.10
2023-03-05T09:56:58.487Z,11.50
2023-03-05T09:57:58.518Z,12.20
2023-03-05T09:58:58.546Z,9.20
2023-03-05T09:59:58.478Z,11.50
2023-03-05T10:00:58.476Z,11.10
2023-03-05T10:01:58.482Z,11.80
2023-03-05T10:02:58.558Z,9.90
2023-03-05T10:03:58.523Z,11.70
2023-03-05T10:04:58.514Z,11.80
2023-03-05T10:05:58.453Z,9.10
2023-03-05T10:06:58.476Z,11.50
2023-03-05T10:07:58.439Z,12.00
2023-03-05T10:08:58.439Z,10.40
2023-03-05T10:09:58.410Z,12.40
2023-03-05T10:10:58.434Z,9.90
2023-03-05T10:11:58.444Z,9.80
2023-03-05T10:12:58.389Z,13.50
2023-03-05T10:13:58.393Z,11.20
2023-03-05T10:14:58.394Z,9.80
2023-03-05T10:15:58.369Z,11.00
2023-03-05T10:16:58.423Z,10.10
2023-03-05T10:17:58.353Z,11.20
2023-03-05T10:18:58.380Z,12.30
2023-03-05T10:19:58.340Z,9.50
2023-03-05T10:20:58.344Z,11.70
2023-03-05T10:21:58.319Z,12.20
2023-03-05T10:22:58.373Z,12.30
2023-03-05T10:23:58.331Z,11.80
2023-03-05T10:24:58.300Z,13.70
2023-03-05T10:25:58.302Z,11.90
2023-03-05T10:26:58.344Z,11.60
2023-03-05T10:27:58.286Z,12.80
2023-03-05T10:28:58.325Z,12.70
2023-03-05T10:29:58.304Z,11.90
2023-03-05T10:30:58.272Z,11.90
2023-03-05T10:31:58.346Z,9.50
2023-03-05T10:32:58.244Z,11.50
2023-03-05T10:33:58.246Z,10.00
2023-03-05T10:34:58.273Z,12.10
2023-03-05T10:35:58.281Z,9.20
2023-03-05T10:36:58.468Z,12.80
2023-03-05T10:37:58.216Z,10.50
2023-03-05T10:38:58.212Z,9.30
2023-03-05T10:39:58.220Z,11.10
2023-03-05T10:40:58.226Z,10.60
2023-03-05T10:41:58.194Z,8.80
2023-03-05T10:42:58.186Z,11.50
2023-03-05T10:43:58.183Z,10.90
2023-03-05T10:44:58.192Z,8.90
2023-03-05T10:45:58.233Z,11.20
2023-03-05T10:46:58.403Z,9.60
2023-03-05T10:47:58.137Z,10.40
2023-03-05T10:48:58.131Z,8.70
2023-03-05T10:49:58.148Z,11.40
2023-03-05T10:50:58.116Z,9.30
2023-03-05T10:51:58.105Z,7.70
2023-03-05T10:52:58.193Z,7.90
2023-03-05T10:53:58.140Z,10.30
2023-03-05T10:54:58.095Z,8.50
2023-03-05T10:55:58.093Z,11.00
2023-03-05T10:56:58.087Z,11.20
2023-03-05T10:57:58.075Z,8.20
2023-03-05T10:58:58.142Z,9.60
2023-03-05T10:59:58.070Z,8.10
2023-03-05T11:00:58.134Z,6.20
2023-03-05T11:01:58.042Z,10.40
2023-03-05T11:02:58.062Z,10.70
2023-03-05T11:03:58.033Z,7.60
2023-03-05T11:04:58.095Z,11.10
2023-03-05T11:05:58.065Z,9.60
2023-03-05T11:06:58.019Z,9.60
2023-03-05T11:07:58.028Z,8.60
2023-03-05T11:08:58.058Z,8.30
2023-03-05T11:09:58.031Z,10.80
2023-03-05T11:10:58.070Z,8.80
2023-03-05T11:11:57.968Z,7.00
2023-03-05T11:12:57.969Z,8.60
2023-03-05T11:13:58.026Z,7.70
2023-03-05T11:14:57.945Z,5.60
2023-03-05T11:15:57.980Z,7.80
2023-03-05T11:16:58.026Z,9.60
2023-03-05T11:17:57.957Z,6.90
2023-03-05T11:18:57.940Z,7.10
2023-03-05T11:19:57.938Z,8.30
2023-03-05T11:20:57.923Z,9.30
2023-03-05T11:21:59.808Z,7.10
2023-03-05T11:22:57.959Z,10.40
2023-03-05T11:23:57.901Z,7.80
2023-03-05T11:24:57.885Z,6.20
2023-03-05T11:25:57.937Z,10.90
2023-03-05T11:26:57.952Z,8.40
2023-03-05T11:27:57.876Z,9.70
2023-03-05T11:28:57.959Z,9.30
2023-03-05T11:29:57.868Z,8.40
2023-03-05T11:30:57.950Z,10.20
2023-03-05T11:31:57.908Z,7.60
2023-03-05T11:32:57.906Z,9.20
2023-03-05T11:33:57.976Z,5.80
2023-03-05T11:34:57.880Z,7.90
2023-03-05T11:35:57.899Z,6.90
2023-03-05T11:36:57.791Z,7.90
2023-03-05T11:37:57.809Z,7.50
2023-03-05T11:38:57.786Z,7.90
2023-03-05T11:39:57.812Z,6.10
2023-03-05T11:40:57.954Z,8.00
2023-03-05T11:41:57.770Z,8.20
2023-03-05T11:42:57.769Z,6.70
2023-03-05T11:43:57.769Z,7.60
2023-03-05T11:44:57.777Z,8.00
2023-03-05T11:45:57.754Z,6.50
2023-03-05T11:46:57.766Z,7.50
2023-03-05T11:47:57.735Z,7.60
2023-03-05T11:48:57.761Z,6.90
2023-03-05T11:49:57.709Z,7.10
2023-03-05T11:50:57.712Z,7.40
2023-03-05T11:51:57.708Z,7.10
2023-03-05T11:52:58.306Z,6.20
2023-03-05T11:53:57.766Z,7.60
2023-03-05T11:54:57.691Z,10.20
2023-03-05T11:55:57.688Z,7.50
2023-03-05T11:56:57.659Z,6.80
2023-03-05T11:57:57.681Z,7.90
2023-03-05T11:58:57.718Z,7.20
2023-03-05T11:59:57.673Z,6.20
2023-03-05T12:00:57.649Z,9.00
2023-03-05T12:01:57.650Z,6.30
2023-03-05T12:02:57.669Z,8.40
2023-03-05T12:03:57.659Z,8.30
2023-03-05T12:04:57.651Z,6.80
2023-03-05T12:05:57.620Z,9.60
2023-03-05T12:06:57.602Z,8.50
2023-03-05T12:07:57.617Z,9.60
2023-03-05T12:08:57.701Z,8.00
2023-03-05T12:09:57.594Z,8.00
2023-03-05T12:10:57.647Z,7.50
2023-03-05T12:11:57.586Z,8.40
2023-03-05T12:12:57.574Z,7.20
2023-03-05T12:13:57.577Z,7.50
2023-03-05T12:14:57.554Z,4.00
2023-03-05T12:15:57.579Z,7.00
2023-03-05T12:16:57.581Z,7.20
2023-03-05T12:17:57.540Z,8.20
2023-03-05T12:18:57.531Z,8.80
2023-03-05T12:19:57.506Z,6.20
2023-03-05T12:20:57.529Z,6.50
2023-03-05T12:21:57.518Z,8.90
2023-03-05T12:22:57.560Z,6.50
2023-03-05T12:23:57.494Z,7.30
2023-03-05T12:24:57.512Z,7.00
2023-03-05T12:25:57.492Z,5.40
2023-03-05T12:26:57.474Z,6.60
2023-03-05T12:27:57.471Z,4.20
2023-03-05T12:28:57.599Z,5.90
2023-03-05T12:29:57.486Z,6.60
2023-03-05T12:30:57.453Z,6.20
2023-03-05T12:31:57.437Z,7.30
2023-03-05T12:32:57.421Z,8.00
2023-03-05T12:33:57.990Z,6.20
2023-03-05T12:34:57.480Z,6.00
2023-03-05T12:35:57.438Z,7.40
2023-03-05T12:36:57.429Z,8.90
2023-03-05T12:37:59.545Z,6.90
2023-03-05T12:38:57.483Z,9.20
2023-03-05T12:39:57.401Z,8.20
2023-03-05T12:40:57.451Z,7.00
2023-03-05T12:41:57.379Z,6.80
2023-03-05T12:42:57.436Z,8.00
2023-03-05T12:43:57.372Z,6.90
2023-03-05T12:44:57.365Z,6.60
2023-03-05T12:45:57.368Z,6.10
2023-03-05T12:46:57.445Z,6.10
2023-03-05T12:47:57.323Z,9.10
2023-03-05T12:48:57.321Z,6.80
2023-03-05T12:49:57.348Z,6.80
2023-03-05T12:50:57.312Z,9.50
2023-03-05T12:51:57.326Z,9.30
2023-03-05T12:52:57.333Z,6.70
2023-03-05T12:53:57.283Z,9.00
2023-03-05T12:54:57.276Z,8.50
2023-03-05T12:55:57.268Z,9.60
2023-03-05T12:56:57.275Z,8.10
2023-03-05T12:57:57.285Z,5.80
2023-03-05T12:58:57.583Z,8.10
2023-03-05T12:59:57.267Z,9.20
2023-03-05T13:00:57.268Z,7.20
2023-03-05T13:01:57.232Z,9.90
2023-03-05T13:02:57.258Z,5.60
2023-03-05T13:03:57.263Z,8.50
2023-03-05T13:04:57.302Z,7.70
2023-03-05T13:05:57.221Z,7.70
2023-03-05T13:06:57.192Z,7.40
2023-03-05T13:07:57.189Z,9.00
2023-03-05T13:08:57.189Z,8.50
2023-03-05T13:09:57.250Z,9.60
2023-03-05T13:10:57.258Z,8.70
2023-03-05T13:11:57.241Z,9.30
2023-03-05T13:12:57.165Z,7.20
2023-03-05T13:13:57.139Z,7.40
2023-03-05T13:14:57.148Z,8.00